Terminal Aerodrome Forecast
Issued by NWS Charleston, WV

Current Version | Previous Version | Graphics & Text | Print | Product List | Glossary On
Versions: 1 2 3 4 5 6 7 8 9 10 11 12 13 14 15 16 17 18 19 20 21 22
000
FTUS41 KRLX 191100
TAFHTS
TAF
KHTS 191120Z 1912/2012 05005KT P6SM FEW050
     FM200200 13006KT P6SM SCT070
     FM201000 17004KT 6SM BR SCT250
     FM201100 VRB03KT 3SM BR SCT250=

USA.gov is the U.S. government's official web portal to all federal, state and local government web resources and services.